Latest Coastal Weather Observations for Portland Airport

IDV60701

Issued at 8:22 pm EDT Thursday 21 October 2021 (issued every 10 minutes, with the page automatically refreshed every 10 minutes)

About coastal observations | Map of coastal stations | Coastal observations for VIC | Marine services | Other Formats
Station Details ID: 090171 Name: CASHMORE AIRPORT Lat: -38.31 Lon: 141.47 Height: 80.9 m
Data from the previous 72 hours. | See also: Recent months at Portland Airport
Date/Time
EDT
Wind Sea
Height
m
Swell Vis
km
Cloud Weather Temp
°C
Press
MSL
hPa
Rain since
9am
mm
Dir  Spd
kts
Gust
kts
Height
m
Period
s
Dir
21/08:00pm W 9 12 - - - - 10 - - 13.9 1013.6 0.0
21/07:30pm W 12 17 - - - - 10 Partly cloudy - 14.8 1013.4 0.0
21/07:00pm W 14 19 - - - - 10 Partly cloudy - 15.4 1013.1 0.0
21/06:30pm W 13 18 - - - - 10 - - 15.9 1012.8 0.0
21/06:00pm W 13 17 - - - - 10 - - 16.5 1012.4 0.0
21/05:30pm W 16 21 - - - - 10 Partly cloudy - 16.8 1012.4 0.0
21/05:00pm W 15 20 - - - - 10 Cloudy - 17.1 1012.0 0.0
21/04:30pm W 15 21 - - - - 10 Partly cloudy - 16.8 1011.7 0.0
21/04:00pm W 14 19 - - - - 10 Partly cloudy - 17.1 1011.8 0.0
21/03:30pm W 14 19 - - - - 10 Partly cloudy - 18.1 1011.7 0.0
21/03:00pm W 14 19 - - - - 10 Cloudy - 17.4 1011.6 0.0
21/02:30pm W 12 16 - - - - 10 Partly cloudy - 17.6 1011.7 0.0
21/02:00pm W 13 17 - - - - 10 Cloudy - 18.9 1011.7 0.0
21/01:30pm W 11 15 - - - - 10 Partly cloudy - 17.0 1011.7 0.0
21/01:00pm W 11 14 - - - - 10 Partly cloudy - 17.5 1011.8 0.0
21/12:30pm W 11 15 - - - - 10 Partly cloudy - 18.6 1011.5 0.0
21/12:00pm W 11 14 - - - - 10 Cloudy - 19.6 1011.5 0.0
21/11:30am W 9 11 - - - - 10 Partly cloudy - 18.9 1011.5 0.0
21/11:00am W 6 10 - - - - 10 Partly cloudy - 19.0 1011.5 0.0
21/10:30am W 11 13 - - - - 10 Partly cloudy - 19.1 1011.6 0.0
21/10:00am WNW 9 11 - - - - 10 - - 18.2 1011.4 0.0
21/09:30am WNW 11 14 - - - - 10 - - 17.5 1011.5 0.0
21/09:00am WNW 10 15 - - - - 10 Partly cloudy - 17.1 1011.5 0.2
21/08:30am WNW 9 12 - - - - 10 - - 16.7 1011.4 0.2
21/08:00am NW 7 10 - - - - 10 Partly cloudy - 17.3 1011.0 0.2
21/07:30am NW 7 11 - - - - 10 Cloudy - 16.7 1010.8 0.2
21/07:00am NNW 7 11 - - - - 10 Cloudy - 17.2 1010.3 0.2
21/06:30am N 6 8 - - - - 10 Partly cloudy - 16.4 1009.9 0.2
21/06:00am N 7 8 - - - - 10 Cloudy - 17.1 1009.5 0.2
21/05:30am N 8 12 - - - - 10 Partly cloudy - 17.6 1009.3 0.2
21/05:00am NNE 6 9 - - - - 10 Cloudy - 17.7 1009.3 0.2
21/04:30am N 8 12 - - - - 10 Partly cloudy - 18.4 1009.3 0.2
21/04:00am N 7 10 - - - - 10 Cloudy - 18.5 1009.2 0.2
21/03:30am NNE 7 10 - - - - 10 Cloudy - 18.3 1009.3 0.2
21/03:00am NNE 7 10 - - - - 10 Cloudy - 18.1 1009.6 0.2
21/02:30am NNE 7 10 - - - - 10 - - 17.8 1009.7 0.2
21/02:00am NNE 7 9 - - - - 10 - - 17.5 1010.0 0.2
21/01:30am NE 8 12 - - - - 10 - - 17.5 1010.0 0.2
21/01:00am NNE 9 12 - - - - 10 - - 17.5 1010.4 0.2
21/12:30am NE 6 9 - - - - 10 - - 17.3 1010.4 0.2
21/12:00am NE 7 10 - - - - 10 Cloudy - 17.9 1010.6 0.2
 
Date/Time
EDT
Wind Sea
Height
m
Swell Vis
km
Cloud Weather Temp
°C
Press
MSL
hPa
Rain since
9am
mm
Dir  Spd
kts
Gust
kts
Height
m
Period
s
Dir
20/11:30pm NE 9 13 - - - - 10 - - 18.2 1010.8 0.2
20/11:00pm NNE 11 14 - - - - 10 - - 18.4 1011.1 0.2
20/10:30pm NE 9 15 - - - - 10 - - 18.4 1011.0 0.2
20/10:00pm NE 9 14 - - - - 10 - - 18.4 1011.0 0.2
20/09:30pm ENE 8 12 - - - - 10 - - 18.0 1011.2 0.2
20/09:00pm ENE 10 13 - - - - 10 Cloudy - 17.6 1011.3 0.2
20/08:30pm ENE 5 7 - - - - 10 - - 18.1 1012.1 0.2
20/08:00pm ENE 3 5 - - - - 10 - - 18.5 1012.3 0.2
20/07:30pm NNE 4 5 - - - - 10 - - 19.1 1012.3 0.2
20/07:00pm NE 5 8 - - - - 10 - - 19.9 1012.1 0.2
20/06:30pm NE 7 11 - - - - 10 - - 20.6 1011.6 0.2
20/06:00pm NE 7 11 - - - - 10 Mostly cloudy - 20.9 1012.2 0.2
20/05:30pm NNE 9 13 - - - - 10 - - 21.4 1012.2 0.2
20/05:00pm NE 11 19 - - - - 10 - - 21.4 1012.4 0.2
20/04:30pm NE 11 17 - - - - 10 - - 21.5 1012.6 0.2
20/04:00pm NNE 12 18 - - - - 10 - - 21.9 1012.9 0.2
20/03:30pm NE 11 18 - - - - 10 - - 22.0 1013.4 0.2
20/03:00pm NE 11 17 - - - - 10 - - 21.5 1014.1 0.2
20/02:30pm NNE 11 17 - - - - 10 - - 21.3 1014.7 0.2
20/02:00pm NE 8 13 - - - - 10 - - 20.6 1015.4 0.2
20/01:30pm NE 9 15 - - - - 10 - - 19.7 1015.8 0.2
20/01:00pm NE 9 14 - - - - 10 - - 19.2 1016.5 0.2
20/12:30pm NE 11 18 - - - - 10 - - 18.3 1017.1 0.2
20/12:00pm NE 9 16 - - - - 10 - Recent precip. 17.6 1017.6 0.2
20/11:30am NNE 8 13 - - - - 10 - - 17.1 1018.6 0.0
20/11:00am ENE 6 10 - - - - 10 - - 16.0 1018.8 0.0
20/10:30am NE 6 9 - - - - 10 - - 15.1 1019.0 0.0
20/10:00am NE 8 11 - - - - 10 - - 13.9 1019.3 0.0
20/09:30am NE 9 13 - - - - 10 - - 13.4 1019.5 0.0
20/09:00am ENE 7 13 - - - - 10 - - 12.5 1019.5 0.2
20/08:30am NE 7 11 - - - - 10 - - 11.6 1019.7 0.2
20/08:00am ENE 5 10 - - - - 10 - - 10.9 1019.9 0.2
20/07:30am ENE 8 12 - - - - 10 - - 9.7 1019.4 0.2
20/07:00am ENE 9 12 - - - - 10 - - 8.7 1019.3 0.2
20/06:30am ENE 7 11 - - - - 10 - - 8.2 1019.9 0.2
20/06:00am ENE 6 9 - - - - 10 - - 8.1 1020.4 0.2
20/05:30am ENE 4 7 - - - - 10 - - 7.7 1020.9 0.2
20/05:00am ENE 5 7 - - - - 10 Partly cloudy - 7.7 1021.0 0.2
20/04:30am ENE 3 6 - - - - 10 - - 7.9 1021.3 0.2
20/04:00am ENE 4 6 - - - - 10 - - 8.3 1021.6 0.2
20/03:30am ENE 8 12 - - - - 10 - - 8.5 1021.4 0.2
20/03:00am ENE 9 12 - - - - 10 - - 8.9 1021.5 0.2
20/02:30am ENE 7 10 - - - - 10 - - 8.6 1021.5 0.2
20/02:00am ENE 6 9 - - - - 10 - - 8.9 1022.4 0.2
20/01:30am ENE 6 8 - - - - 10 - - 9.1 1023.1 0.2
20/01:00am NE 3 5 - - - - 10 - - 9.7 1023.8 0.2
20/12:30am NE 4 8 - - - - 10 Partly cloudy - 10.4 1023.8 0.2
20/12:00am E 4 6 - - - - 10 Cloudy - 10.6 1023.9 0.2
 
Date/Time
EDT
Wind Sea
Height
m
Swell Vis
km
Cloud Weather Temp
°C
Press
MSL
hPa
Rain since
9am
mm
Dir  Spd
kts
Gust
kts
Height
m
Period
s
Dir
19/11:57pm ESE 3 6 - - - - 10 Partly cloudy - 10.5 1024.0 0.2
19/11:40pm CALM 0 0 - - - - 10 Partly cloudy - 10.4 1024.6 0.2
19/11:30pm CALM 0 3 - - - - 10 Cloudy - 10.2 1024.7 0.2
19/11:00pm SSE 1 3 - - - - 10 Cloudy - 10.3 1024.4 0.2
19/10:30pm ESE 4 7 - - - - 10 Cloudy - 10.4 1024.2 0.2
19/10:00pm ESE 6 8 - - - - 10 Partly cloudy - 9.6 1024.4 0.2
19/09:30pm SE 7 9 - - - - 10 Partly cloudy - 9.5 1024.6 0.2
19/09:00pm ESE 5 7 - - - - 10 - - 9.1 1024.2 0.2
19/08:30pm SE 6 8 - - - - 10 - - 9.7 1024.8 0.2
19/08:00pm ESE 6 9 - - - - 10 - - 10.1 1024.3 0.2
19/07:30pm ESE 7 11 - - - - 10 - - 10.8 1023.6 0.2
19/07:00pm SE 10 12 - - - - 10 - - 11.8 1024.2 0.2
19/06:30pm ESE 10 14 - - - - 10 - - 12.2 1024.5 0.2
19/06:00pm SE 10 14 - - - - 10 - - 12.8 1024.5 0.2
19/05:30pm ESE 8 13 - - - - 10 - - 13.4 1024.2 0.2
19/05:00pm ESE 10 14 - - - - 10 - - 13.5 1024.0 0.2
19/04:30pm ESE 10 16 - - - - 10 - - 13.5 1024.0 0.2
19/04:00pm E 12 17 - - - - 10 - - 13.7 1023.9 0.2
19/03:30pm ESE 9 13 - - - - 10 - - 14.2 1024.3 0.2
19/03:00pm SE 11 15 - - - - 10 - Recent precip. 13.9 1025.0 0.2
19/02:30pm ESE 8 14 - - - - 10 - - 14.7 1024.9 0.2
19/02:00pm ESE 9 13 - - - - 10 - - 13.7 1024.9 0.0
19/01:30pm E 11 16 - - - - 10 Partly cloudy - 13.9 1024.7 0.0
19/01:00pm ESE 11 16 - - - - 10 Partly cloudy - 12.5 1024.9 0.0
19/12:30pm ESE 10 16 - - - - 10 Partly cloudy - 13.1 1025.0 0.0
19/12:00pm SE 12 18 - - - - 10 Cloudy - 12.5 1025.3 0.0
19/11:30am SE 12 18 - - - - 10 Partly cloudy - 12.9 1025.1 0.0
19/11:00am ESE 11 15 - - - - 10 Partly cloudy - 12.4 1024.8 0.0
19/10:30am SE 12 19 - - - - 10 Partly cloudy - 12.0 1024.4 0.0
19/10:00am ESE 11 16 - - - - 10 Partly cloudy - 11.4 1024.4 0.0
19/09:48am ESE 7 12 - - - - 10 Partly cloudy - 11.1 1024.3 0.0
19/09:38am ESE 8 13 - - - - 5 Partly cloudy - 10.5 1024.3 0.0
19/09:30am ESE 9 15 - - - - 9 Partly cloudy - 10.5 1024.2 0.0
19/09:00am ESE 7 12 - - - - 10 Cloudy - 11.5 1023.8 0.2
19/08:30am SE 9 13 - - - - 10 Partly cloudy - 10.7 1023.9 0.2
19/08:00am SE 7 11 - - - - 10 Partly cloudy - 10.0 1023.6 0.2
19/07:30am CALM 0 3 - - - - 10 Partly cloudy - 7.7 1023.6 0.2
19/07:00am CALM 0 0 - - - - 10 Partly cloudy - 7.9 1023.2 0.2
19/06:30am SSE 4 5 - - - - 10 Partly cloudy - 8.1 1022.8 0.2
19/06:00am S 1 4 - - - - 10 Partly cloudy - 7.7 1022.4 0.2
19/05:30am SSE 3 5 - - - - 10 Partly cloudy - 8.4 1021.9 0.2
19/05:00am SSE 3 4 - - - - 10 Partly cloudy - 9.4 1021.4 0.2
19/04:30am SE 4 6 - - - - 10 Partly cloudy - 8.1 1021.0 0.2
19/04:00am SE 4 6 - - - - 10 Partly cloudy - 8.8 1021.0 0.2
19/03:30am SE 4 6 - - - - 10 Partly cloudy - 9.6 1020.8 0.2
19/03:00am SE 3 5 - - - - 10 Mostly cloudy - 9.8 1020.7 0.2
19/02:30am SSE 5 8 - - - - 10 Partly cloudy - 10.4 1020.7 0.2
19/02:00am SSW 3 5 - - - - 10 Partly cloudy - 9.9 1020.9 0.2
19/01:30am SSW 4 5 - - - - 10 Partly cloudy - 10.1 1021.1 0.2
19/01:00am SSW 5 6 - - - - 10 Partly cloudy - 10.1 1020.9 0.2
19/12:30am SSW 5 8 - - - - 10 Partly cloudy - 10.3 1020.8 0.2
19/12:00am SSW 3 5 - - - - 10 Cloudy - 10.5 1020.7 0.2
 
Date/Time
EDT
Wind Sea
Height
m
Swell Vis
km
Cloud Weather Temp
°C
Press
MSL
hPa
Rain since
9am
mm
Dir  Spd
kts
Gust
kts
Height
m
Period
s
Dir
18/11:30pm SSW 4 6 - - - - 10 Partly cloudy - 10.5 1020.6 0.2
18/11:00pm SSW 5 7 - - - - 10 Partly cloudy - 10.8 1020.5 0.2
18/10:30pm SSW 5 8 - - - - 10 Partly cloudy - 11.1 1020.4 0.2
18/10:00pm SSW 6 9 - - - - 10 Partly cloudy - 10.9 1020.1 0.2
18/09:30pm SW 5 9 - - - - 10 Partly cloudy - 11.1 1019.6 0.2
18/09:00pm SW 7 10 - - - - 10 Mostly clear - 10.7 1019.1 0.2
18/08:30pm SW 7 10 - - - - 10 Partly cloudy - 10.9 1018.9 0.2

Other formats

Comma delimited format used in spreadsheet applications
http://www.bom.gov.au/fwo/IDV60701/IDV60701.94828.axf

JavaScript Object Notation format (JSON) in row-major order
http://www.bom.gov.au/fwo/IDV60701/IDV60701.94828.json

Data quality

Most of these data are generated automatically and are frequently updated. Quality checks on data are not normally performed. It is possible for incorrect values to appear. Refer to information at About Latest Weather Observations and please check the disclaimer before using these data.